createdAt,value
2018-04-17T00:01:26.345Z,13.23
2018-04-17T00:03:53.857Z,13.67
2018-04-17T00:06:21.358Z,12.80
2018-04-17T00:08:48.875Z,13.10
2018-04-17T00:11:16.381Z,13.10
2018-04-17T00:13:43.873Z,13.47
2018-04-17T00:16:11.388Z,13.43
2018-04-17T00:18:38.876Z,13.00
2018-04-17T00:21:07.164Z,14.37
2018-04-17T00:23:34.656Z,13.03
2018-04-17T00:26:02.183Z,13.27
2018-04-17T00:28:29.708Z,14.23
2018-04-17T00:30:57.226Z,12.50
2018-04-17T00:33:24.722Z,13.30
2018-04-17T00:35:52.255Z,13.70
2018-04-17T00:38:19.774Z,14.97
2018-04-17T00:40:47.271Z,13.80
2018-04-17T00:43:14.796Z,15.07
2018-04-17T00:45:42.318Z,13.77
2018-04-17T00:48:09.847Z,14.43
2018-04-17T00:50:37.360Z,13.10
2018-04-17T00:53:16.879Z,14.07
2018-04-17T00:55:44.401Z,13.50
2018-04-17T00:58:11.896Z,13.67
2018-04-17T01:00:40.173Z,13.20
2018-04-17T01:03:07.658Z,13.57
2018-04-17T01:05:35.155Z,12.60
2018-04-17T01:08:02.707Z,12.97
2018-04-17T01:10:30.237Z,12.87
2018-04-17T01:12:58.517Z,12.80
2018-04-17T01:15:26.035Z,12.97
2018-04-17T01:17:54.315Z,12.27
2018-04-17T01:20:21.829Z,12.50
2018-04-17T01:22:50.114Z,12.80
2018-04-17T01:25:17.608Z,10.60
2018-04-17T01:27:45.116Z,11.03
2018-04-17T01:30:12.627Z,10.50
2018-04-17T01:32:40.178Z,10.60
2018-04-17T01:35:08.461Z,12.37
2018-04-17T01:37:36.015Z,11.30
2018-04-17T01:40:03.517Z,11.23
2018-04-17T01:42:31.055Z,10.50
2018-04-17T01:44:58.571Z,12.93
2018-04-17T01:47:26.099Z,11.40
2018-04-17T01:49:53.624Z,11.90
2018-04-17T01:52:21.126Z,11.40
2018-04-17T01:54:48.772Z,11.60
2018-04-17T01:57:16.282Z,10.33
2018-04-17T01:59:43.778Z,10.47
2018-04-17T02:02:11.298Z,11.00
2018-04-17T02:04:38.833Z,11.60
2018-04-17T02:07:06.358Z,11.00
2018-04-17T02:09:33.855Z,11.87
2018-04-17T02:12:01.380Z,12.00
2018-04-17T02:14:28.873Z,12.33
2018-04-17T02:16:57.150Z,12.27
2018-04-17T02:19:24.675Z,11.93
2018-04-17T02:21:52.949Z,13.57
2018-04-17T02:24:20.460Z,13.13
2018-04-17T02:26:48.756Z,14.20
2018-04-17T02:29:16.276Z,12.27
2018-04-17T02:31:43.798Z,13.07
2018-04-17T02:34:11.296Z,10.73
2018-04-17T02:36:38.814Z,12.20
2018-04-17T02:39:07.090Z,11.30
2018-04-17T02:41:35.357Z,11.67
2018-04-17T02:44:02.868Z,12.67
2018-04-17T02:46:30.369Z,11.10
2018-04-17T02:48:57.882Z,10.90
2018-04-17T02:51:25.390Z,10.57
2018-04-17T02:53:52.983Z,10.60
2018-04-17T02:56:20.523Z,11.27
2018-04-17T02:58:48.042Z,11.47
2018-04-17T03:01:17.137Z,11.93
2018-04-17T03:03:45.413Z,11.40
2018-04-17T03:06:12.910Z,11.30
2018-04-17T03:08:40.421Z,11.07
2018-04-17T03:11:07.946Z,11.13
2018-04-17T03:13:35.483Z,10.03
2018-04-17T03:16:02.970Z,10.00
2018-04-17T03:18:31.314Z,10.50
2018-04-17T03:20:58.811Z,9.43
2018-04-17T03:23:26.327Z,11.10
2018-04-17T03:25:54.653Z,11.00
2018-04-17T03:28:22.162Z,10.57
2018-04-17T03:30:49.665Z,10.73
2018-04-17T03:33:17.182Z,12.10
2018-04-17T03:35:44.680Z,10.53
2018-04-17T03:38:12.195Z,10.50
2018-04-17T03:40:40.473Z,11.13
2018-04-17T03:43:07.971Z,10.97
2018-04-17T03:45:35.465Z,10.87
2018-04-17T03:48:03.736Z,10.40
2018-04-17T03:50:31.259Z,11.10
2018-04-17T03:52:58.793Z,10.10
2018-04-17T03:55:26.279Z,11.33
2018-04-17T03:57:53.780Z,12.50
2018-04-17T04:00:21.377Z,11.83
2018-04-17T04:02:49.648Z,12.30
2018-04-17T04:05:17.913Z,11.47
2018-04-17T04:07:45.436Z,11.40
2018-04-17T04:10:12.955Z,11.20
2018-04-17T04:12:40.448Z,12.90
2018-04-17T04:15:08.799Z,12.57
2018-04-17T04:17:48.974Z,12.70
2018-04-17T04:20:28.184Z,11.13
2018-04-17T04:23:07.468Z,12.27
2018-04-17T04:39:07.172Z,12.40
2018-04-17T04:41:34.677Z,12.27
2018-04-17T04:44:02.237Z,12.60
2018-04-17T04:46:29.773Z,11.80
2018-04-17T04:48:57.275Z,12.20
2018-04-17T04:51:24.818Z,11.30
2018-04-17T04:53:52.355Z,12.77
2018-04-17T04:56:19.856Z,11.53
2018-04-17T04:58:47.363Z,12.10
2018-04-17T05:01:14.893Z,12.50
2018-04-17T05:03:43.179Z,13.20
2018-04-17T05:06:10.675Z,12.73
2018-04-17T05:08:38.200Z,11.70
2018-04-17T05:11:05.701Z,12.33
2018-04-17T05:13:33.246Z,12.37
2018-04-17T05:16:00.738Z,11.43
2018-04-17T05:18:28.327Z,11.17
2018-04-17T05:20:55.827Z,11.60
2018-04-17T05:23:23.435Z,13.73
2018-04-17T05:25:50.954Z,13.00
2018-04-17T05:28:19.230Z,11.63
2018-04-17T05:30:46.759Z,11.90
2018-04-17T05:33:14.526Z,11.90
2018-04-17T05:35:42.072Z,11.57
2018-04-17T05:38:09.570Z,12.57
2018-04-17T05:40:37.096Z,12.07
2018-04-17T05:43:04.629Z,12.20
2018-04-17T05:45:32.137Z,12.13
2018-04-17T05:47:59.625Z,10.70
2018-04-17T05:50:27.113Z,11.00
2018-04-17T05:52:54.570Z,10.77
2018-04-17T05:55:22.030Z,10.77
2018-04-17T05:57:49.492Z,12.43
2018-04-17T06:00:16.942Z,10.73
2018-04-17T06:02:44.414Z,9.67
2018-04-17T06:05:11.877Z,12.20
2018-04-17T06:07:40.132Z,9.77
2018-04-17T06:10:07.589Z,9.77
2018-04-17T06:12:35.063Z,11.23
2018-04-17T06:15:02.514Z,10.47
2018-04-17T06:17:29.994Z,10.57
2018-04-17T06:19:57.496Z,10.10
2018-04-17T06:22:24.931Z,10.93
2018-04-17T06:24:52.370Z,9.63
2018-04-17T06:27:19.807Z,8.60
2018-04-17T06:29:47.265Z,10.33
2018-04-17T06:32:14.746Z,9.77
2018-04-17T06:34:42.224Z,10.40
2018-04-17T06:37:09.726Z,11.73
2018-04-17T06:39:37.183Z,13.50
2018-04-17T06:42:05.456Z,11.67
2018-04-17T06:44:33.685Z,11.57
2018-04-17T06:47:01.134Z,11.60
2018-04-17T06:49:28.587Z,11.77
2018-04-17T06:51:56.815Z,13.20
2018-04-17T06:54:24.270Z,12.30
2018-04-17T06:56:51.737Z,11.97
2018-04-17T06:59:19.198Z,11.60
2018-04-17T07:01:46.670Z,11.37
2018-04-17T07:04:14.127Z,11.50
2018-04-17T07:06:41.582Z,12.47
2018-04-17T07:09:09.070Z,11.77
2018-04-17T07:11:37.291Z,13.40
2018-04-17T07:14:05.575Z,10.30
2018-04-17T07:16:33.035Z,11.80
2018-04-17T07:19:01.281Z,10.20
2018-04-17T07:21:28.730Z,14.13
2018-04-17T07:23:56.990Z,11.30
2018-04-17T07:26:25.227Z,11.93
2018-04-17T07:28:53.453Z,11.40
2018-04-17T07:31:20.894Z,10.67
2018-04-17T07:33:48.429Z,11.70
2018-04-17T07:36:15.981Z,11.80
2018-04-17T07:38:43.475Z,11.77
2018-04-17T07:41:10.956Z,12.50
2018-04-17T07:43:38.411Z,12.00
2018-04-17T07:46:05.885Z,12.17
2018-04-17T07:48:45.194Z,12.20
2018-04-17T07:51:12.698Z,12.40
2018-04-17T07:53:40.167Z,11.70
2018-04-17T07:56:07.624Z,11.30
2018-04-17T07:58:35.063Z,11.53
2018-04-17T08:01:02.531Z,12.60
2018-04-17T08:03:29.999Z,11.90
2018-04-17T08:05:58.268Z,14.00
2018-04-17T08:08:26.483Z,12.20
2018-04-17T08:10:53.937Z,12.23
2018-04-17T08:13:21.405Z,11.50
2018-04-17T08:15:48.857Z,13.23
2018-04-17T08:18:16.325Z,11.17
2018-04-17T08:20:43.786Z,13.13
2018-04-17T08:23:11.259Z,11.77
2018-04-17T08:25:38.734Z,13.10
2018-04-17T08:28:06.195Z,11.90
2018-04-17T08:30:33.651Z,12.60
2018-04-17T08:33:01.108Z,14.50
2018-04-17T08:35:28.562Z,14.50
2018-04-17T08:37:56.018Z,14.37
2018-04-17T08:40:23.469Z,13.33
2018-04-17T08:42:50.939Z,13.10
2018-04-17T08:45:18.431Z,12.90
2018-04-17T08:47:45.929Z,12.23
2018-04-17T08:50:13.388Z,11.40
2018-04-17T08:52:41.639Z,11.30
2018-04-17T08:55:09.100Z,11.63
2018-04-17T08:57:36.626Z,12.57
2018-04-17T09:00:04.091Z,16.47
2018-04-17T09:02:31.549Z,16.23
2018-04-17T09:04:59.028Z,10.87
2018-04-17T09:07:27.252Z,9.80
2018-04-17T09:09:54.707Z,9.50
2018-04-17T09:12:22.165Z,9.10
2018-04-17T09:14:49.626Z,9.80
2018-04-17T09:17:17.883Z,10.20
2018-04-17T09:19:46.151Z,11.53
2018-04-17T09:22:14.379Z,11.50
2018-04-17T09:24:41.833Z,15.70
2018-04-17T09:27:09.273Z,13.67
2018-04-17T09:29:36.739Z,10.57
2018-04-17T09:32:04.195Z,9.00
2018-04-17T09:34:31.686Z,6.90
2018-04-17T09:36:59.115Z,8.70
2018-04-17T09:39:26.554Z,9.90
2018-04-17T09:41:54.015Z,5.83
2018-04-17T09:44:21.455Z,7.00
2018-04-17T09:46:48.902Z,7.17
2018-04-17T09:49:16.348Z,5.90
2018-04-17T09:51:43.819Z,11.83
2018-04-17T09:54:12.026Z,8.33
2018-04-17T09:56:39.486Z,7.30
2018-04-17T09:59:07.429Z,6.13
2018-04-17T10:01:34.867Z,5.50
2018-04-17T10:04:02.329Z,7.03
2018-04-17T10:06:29.781Z,6.00
2018-04-17T10:08:57.287Z,7.07
2018-04-17T10:11:24.698Z,7.00
2018-04-17T10:13:52.159Z,6.73
2018-04-17T10:16:19.611Z,6.40
2018-04-17T10:18:47.087Z,6.33
2018-04-17T10:21:14.569Z,4.57
2018-04-17T10:23:43.706Z,3.87
2018-04-17T10:26:11.176Z,5.17
2018-04-17T10:28:38.623Z,5.00
2018-04-17T10:31:06.088Z,5.07
2018-04-17T10:33:34.322Z,5.07
2018-04-17T10:36:02.590Z,4.43
2018-04-17T10:38:30.056Z,5.20
2018-04-17T10:40:58.282Z,4.17
2018-04-17T10:43:25.749Z,6.10
2018-04-17T10:45:53.971Z,5.90
2018-04-17T10:48:21.470Z,5.90
2018-04-17T10:50:48.998Z,8.87
2018-04-17T10:53:16.537Z,7.83
2018-04-17T10:55:44.007Z,6.90
2018-04-17T10:58:11.455Z,6.40
2018-04-17T11:00:38.919Z,4.00
2018-04-17T11:03:06.365Z,3.80
2018-04-17T11:05:33.822Z,3.20
2018-04-17T11:08:01.279Z,5.57
2018-04-17T11:10:28.800Z,5.10
2018-04-17T11:12:56.214Z,5.57
2018-04-17T11:15:23.699Z,5.30
2018-04-17T11:17:51.159Z,5.87
2018-04-17T11:20:18.612Z,6.20
2018-04-17T11:22:46.946Z,5.93
2018-04-17T11:25:14.386Z,6.17
2018-04-17T11:27:41.868Z,6.23
2018-04-17T11:30:10.095Z,7.40
2018-04-17T11:32:37.564Z,7.07
2018-04-17T11:35:05.762Z,6.90
2018-04-17T11:37:33.226Z,6.53
2018-04-17T11:40:00.673Z,5.83
2018-04-17T11:42:28.125Z,5.10
2018-04-17T11:44:55.584Z,4.63
2018-04-17T11:47:23.038Z,4.43
2018-04-17T11:49:50.778Z,3.93
2018-04-17T11:52:18.207Z,4.83
2018-04-17T11:54:45.647Z,4.80
2018-04-17T11:57:13.122Z,4.80
2018-04-17T11:59:40.559Z,5.50
2018-04-17T12:02:08.034Z,5.80
2018-04-17T12:04:35.472Z,4.43
2018-04-17T12:07:02.926Z,6.23
2018-04-17T12:09:30.408Z,5.20
2018-04-17T12:11:57.861Z,4.83
2018-04-17T12:14:25.302Z,6.30
2018-04-17T12:16:52.754Z,6.63
2018-04-17T12:19:20.206Z,5.87
2018-04-17T12:21:48.472Z,6.83
2018-04-17T12:24:16.683Z,4.87
2018-04-17T12:26:44.142Z,5.43
2018-04-17T12:29:11.596Z,6.10
2018-04-17T12:31:39.054Z,5.90
2018-04-17T12:34:06.542Z,5.60
2018-04-17T12:36:33.977Z,6.87
2018-04-17T12:39:01.422Z,6.40
2018-04-17T12:41:28.879Z,6.53
2018-04-17T12:43:56.338Z,6.27
2018-04-17T12:46:23.796Z,6.63
2018-04-17T12:48:51.308Z,6.67
2018-04-17T12:51:18.756Z,6.60
2018-04-17T12:53:46.252Z,7.03
2018-04-17T12:56:14.491Z,6.10
2018-04-17T12:58:41.933Z,6.43
2018-04-17T13:01:10.172Z,6.90
2018-04-17T13:03:37.667Z,6.03
2018-04-17T13:06:05.121Z,7.63
2018-04-17T13:08:32.592Z,7.73
2018-04-17T13:11:00.090Z,6.23
2018-04-17T13:13:28.380Z,5.97
2018-04-17T13:15:55.820Z,5.80
2018-04-17T13:18:23.262Z,6.60
2018-04-17T13:20:50.711Z,6.50
2018-04-17T13:23:18.167Z,6.33
2018-04-17T13:25:45.615Z,5.80
2018-04-17T13:28:13.098Z,5.93
2018-04-17T13:30:40.603Z,5.50
2018-04-17T13:33:08.057Z,6.87
2018-04-17T13:35:35.498Z,6.50
2018-04-17T13:38:02.952Z,5.60
2018-04-17T13:40:30.410Z,7.13
2018-04-17T13:42:57.870Z,6.50
2018-04-17T13:45:25.304Z,7.30
2018-04-17T13:47:52.804Z,6.50
2018-04-17T13:50:20.211Z,7.70
2018-04-17T13:52:47.679Z,7.50
2018-04-17T13:55:15.119Z,6.50
2018-04-17T13:57:42.579Z,6.80
2018-04-17T14:00:10.027Z,6.73
2018-04-17T14:02:37.486Z,6.87
2018-04-17T14:05:04.951Z,5.90
2018-04-17T14:07:32.401Z,5.93
2018-04-17T14:10:00.679Z,6.07
2018-04-17T14:12:28.154Z,5.67
2018-04-17T14:14:56.374Z,5.67
2018-04-17T14:17:23.876Z,6.77
2018-04-17T14:19:51.278Z,6.70
2018-04-17T14:22:18.743Z,6.60
2018-04-17T14:24:46.181Z,6.40
2018-04-17T14:27:13.644Z,7.10
2018-04-17T14:29:41.096Z,6.53
2018-04-17T14:32:08.546Z,6.10
2018-04-17T14:34:36.011Z,5.87
2018-04-17T14:37:04.231Z,5.40
2018-04-17T14:39:31.714Z,5.47
2018-04-17T14:41:59.914Z,7.30
2018-04-17T14:44:27.371Z,5.10
2018-04-17T14:46:54.830Z,5.67
2018-04-17T14:49:22.303Z,5.43
2018-04-17T14:51:49.741Z,5.50
2018-04-17T14:54:17.972Z,4.77
2018-04-17T14:56:45.432Z,5.27
2018-04-17T14:59:12.892Z,4.63
2018-04-17T15:01:41.118Z,4.90
2018-04-17T15:04:08.559Z,6.00
2018-04-17T15:06:36.049Z,4.90
2018-04-17T15:09:03.576Z,5.13
2018-04-17T15:11:31.014Z,5.70
2018-04-17T15:13:59.223Z,4.73
2018-04-17T15:16:26.724Z,5.70
2018-04-17T15:18:54.957Z,5.83
2018-04-17T15:21:22.420Z,4.70
2018-04-17T15:23:49.870Z,5.07
2018-04-17T15:26:18.092Z,6.23
2018-04-17T15:28:45.530Z,7.47
2018-04-17T15:31:12.985Z,5.33
2018-04-17T15:33:40.418Z,5.97
2018-04-17T15:36:07.962Z,7.73
2018-04-17T15:38:35.439Z,8.87
2018-04-17T15:41:02.868Z,9.20
2018-04-17T15:43:30.325Z,9.43
2018-04-17T15:45:58.544Z,9.37
2018-04-17T15:48:26.000Z,9.27
2018-04-17T15:50:53.483Z,7.63
2018-04-17T15:53:20.927Z,8.30
2018-04-17T15:55:49.288Z,8.60
2018-04-17T15:58:16.755Z,7.57
2018-04-17T16:00:44.242Z,6.40
2018-04-17T16:03:11.725Z,6.40
2018-04-17T16:05:40.039Z,6.83
2018-04-17T16:08:07.963Z,6.80
2018-04-17T16:10:35.431Z,7.30
2018-04-17T16:13:03.039Z,7.00
2018-04-17T16:15:30.477Z,8.00
2018-04-17T16:17:57.979Z,6.37
2018-04-17T16:20:25.391Z,8.13
2018-04-17T16:22:52.847Z,7.70
2018-04-17T16:25:21.140Z,8.93
2018-04-17T16:27:48.585Z,6.60
2018-04-17T16:30:16.043Z,7.03
2018-04-17T16:32:44.276Z,7.50
2018-04-17T16:35:11.734Z,7.50
2018-04-17T16:37:39.190Z,9.30
2018-04-17T16:40:07.421Z,7.30
2018-04-17T16:42:34.862Z,8.67
2018-04-17T16:45:02.338Z,7.80
2018-04-17T16:47:29.790Z,7.20
2018-04-17T16:49:57.251Z,8.07
2018-04-17T16:52:24.799Z,7.10
2018-04-17T16:54:52.248Z,5.00
2018-04-17T16:57:19.750Z,4.57
2018-04-17T16:59:47.983Z,4.67
2018-04-17T17:02:15.444Z,4.87
2018-04-17T17:04:42.899Z,4.50
2018-04-17T17:07:11.179Z,4.70
2018-04-17T17:09:39.375Z,4.90
2018-04-17T17:12:06.830Z,4.77
2018-04-17T17:14:34.270Z,5.10
2018-04-17T17:17:01.731Z,4.80
2018-04-17T17:19:29.249Z,5.97
2018-04-17T17:21:56.795Z,5.13
2018-04-17T17:24:24.258Z,5.10
2018-04-17T17:26:51.722Z,6.13
2018-04-17T17:29:19.939Z,9.57
2018-04-17T17:31:47.452Z,6.30
2018-04-17T17:34:14.919Z,6.53
2018-04-17T17:36:42.418Z,6.37
2018-04-17T17:39:09.887Z,6.40
2018-04-17T17:41:37.329Z,10.27
2018-04-17T17:44:04.784Z,8.80
2018-04-17T17:46:32.248Z,8.00
2018-04-17T17:48:59.738Z,8.80
2018-04-17T17:51:27.937Z,8.00
2018-04-17T17:53:55.380Z,9.47
2018-04-17T17:56:22.838Z,8.53
2018-04-17T17:58:50.296Z,7.97
2018-04-17T18:01:17.769Z,8.47
2018-04-17T18:03:45.979Z,7.60
2018-04-17T18:06:13.435Z,7.97
2018-04-17T18:08:40.895Z,8.00
2018-04-17T18:11:08.378Z,7.70
2018-04-17T18:13:36.581Z,8.30
2018-04-17T18:16:04.055Z,8.73
2018-04-17T18:18:32.279Z,9.97
2018-04-17T18:20:59.732Z,7.83
2018-04-17T18:23:27.190Z,9.27
2018-04-17T18:25:54.634Z,8.27
2018-04-17T18:28:22.085Z,8.00
2018-04-17T18:30:49.553Z,8.70
2018-04-17T18:33:17.038Z,8.00
2018-04-17T18:35:48.010Z,8.83
2018-04-17T18:38:19.765Z,8.67
2018-04-17T18:40:59.165Z,8.97
2018-04-17T18:43:27.392Z,9.63
2018-04-17T18:46:07.427Z,9.40
2018-04-17T18:48:34.874Z,9.07
2018-04-17T18:51:02.335Z,10.20
2018-04-17T18:53:29.795Z,9.00
2018-04-17T18:55:58.014Z,9.50
2018-04-17T18:58:25.528Z,10.00
2018-04-17T19:00:53.371Z,9.53
2018-04-17T19:03:20.804Z,9.30
2018-04-17T19:05:48.254Z,9.40
2018-04-17T19:08:15.711Z,10.90
2018-04-17T19:10:43.282Z,9.97
2018-04-17T19:13:10.728Z,11.33
2018-04-17T19:15:38.184Z,12.20
2018-04-17T19:18:05.643Z,14.50
2018-04-17T19:20:33.870Z,10.43
2018-04-17T19:23:01.331Z,9.23
2018-04-17T19:25:28.908Z,10.33
2018-04-17T19:27:56.356Z,9.50
2018-04-17T19:30:23.826Z,8.83
2018-04-17T19:32:51.283Z,8.50
2018-04-17T19:35:18.727Z,9.03
2018-04-17T19:37:46.290Z,10.90
2018-04-17T19:40:13.780Z,11.50
2018-04-17T19:42:41.250Z,15.17
2018-04-17T19:45:08.703Z,9.00
2018-04-17T19:47:36.160Z,7.43
2018-04-17T19:50:03.599Z,8.57
2018-04-17T19:52:31.126Z,7.90
2018-04-17T19:54:58.614Z,9.33
2018-04-17T19:57:26.866Z,9.10
2018-04-17T19:59:54.285Z,9.80
2018-04-17T20:02:21.751Z,9.23
2018-04-17T20:04:49.202Z,10.73
2018-04-17T20:07:16.695Z,9.27
2018-04-17T20:09:44.134Z,8.63
2018-04-17T20:12:12.348Z,9.33
2018-04-17T20:14:39.839Z,9.13
2018-04-17T20:17:08.264Z,9.00
2018-04-17T20:19:35.750Z,8.93
2018-04-17T20:22:03.445Z,9.40
2018-04-17T20:24:31.110Z,8.93
2018-04-17T20:26:58.550Z,7.90
2018-04-17T20:29:26.016Z,9.40
2018-04-17T20:31:53.474Z,10.20
2018-04-17T20:34:21.720Z,9.70
2018-04-17T20:36:49.210Z,9.70
2018-04-17T20:39:16.664Z,9.87
2018-04-17T20:41:44.120Z,9.53
2018-04-17T20:44:11.559Z,8.00
2018-04-17T20:46:39.054Z,9.13
2018-04-17T20:49:07.321Z,9.70
2018-04-17T20:51:35.550Z,10.70
2018-04-17T20:54:03.182Z,9.83
2018-04-17T20:56:30.896Z,10.30
2018-04-17T20:58:58.580Z,9.90
2018-04-17T21:01:26.055Z,9.50
2018-04-17T21:03:53.514Z,8.57
2018-04-17T21:06:21.856Z,10.10
2018-04-17T21:08:49.333Z,10.70
2018-04-17T21:11:17.558Z,10.40
2018-04-17T21:13:45.012Z,11.50
2018-04-17T21:16:12.472Z,12.53
2018-04-17T21:18:40.690Z,12.23
2018-04-17T21:21:08.177Z,12.57
2018-04-17T21:23:36.421Z,10.90
2018-04-17T21:26:03.902Z,11.17
2018-04-17T21:28:31.359Z,10.60
2018-04-17T21:30:58.854Z,10.13
2018-04-17T21:33:26.363Z,11.27
2018-04-17T21:35:53.815Z,9.57
2018-04-17T21:38:22.055Z,10.70
2018-04-17T21:40:49.500Z,9.80
2018-04-17T21:43:16.967Z,8.47
2018-04-17T21:45:44.414Z,9.20
2018-04-17T21:48:11.878Z,9.20
2018-04-17T21:50:39.331Z,8.77
2018-04-17T21:53:06.787Z,8.33
2018-04-17T21:55:34.248Z,8.93
2018-04-17T21:58:01.704Z,8.10
2018-04-17T22:00:29.169Z,9.17
2018-04-17T22:02:56.627Z,9.20
2018-04-17T22:05:24.078Z,8.53
2018-04-17T22:07:51.565Z,8.80
2018-04-17T22:10:19.002Z,8.60
2018-04-17T22:12:46.483Z,10.33
2018-04-17T22:15:14.693Z,9.03
2018-04-17T22:17:42.190Z,9.20
2018-04-17T22:20:09.661Z,9.30
2018-04-17T22:22:37.118Z,8.23
2018-04-17T22:25:04.559Z,8.50
2018-04-17T22:27:32.004Z,9.73
2018-04-17T22:29:59.454Z,8.90
2018-04-17T22:32:26.922Z,10.63
2018-04-17T22:34:54.399Z,9.10
2018-04-17T22:37:21.837Z,12.07
2018-04-17T22:39:49.295Z,9.23
2018-04-17T22:42:16.770Z,9.73
2018-04-17T22:44:44.210Z,9.80
2018-04-17T22:47:11.666Z,9.40
2018-04-17T22:49:39.158Z,10.70
2018-04-17T22:52:06.615Z,10.07
2018-04-17T22:54:34.068Z,10.60
2018-04-17T22:57:01.516Z,9.60
2018-04-17T22:59:28.970Z,10.40
2018-04-17T23:01:56.437Z,10.70
2018-04-17T23:04:23.899Z,11.67
2018-04-17T23:06:52.155Z,11.60
2018-04-17T23:09:19.570Z,11.27
2018-04-17T23:11:47.027Z,10.50
2018-04-17T23:14:14.483Z,9.90
2018-04-17T23:16:42.694Z,11.87
2018-04-17T23:19:10.151Z,11.07
2018-04-17T23:21:37.609Z,11.67
2018-04-17T23:24:05.053Z,11.13
2018-04-17T23:26:32.498Z,11.63
2018-04-17T23:29:00.719Z,11.93
2018-04-17T23:31:28.177Z,10.97
2018-04-17T23:33:55.634Z,11.43
2018-04-17T23:36:23.090Z,11.83
2018-04-17T23:38:50.550Z,12.10
2018-04-17T23:41:18.006Z,11.13
2018-04-17T23:43:45.462Z,12.40
2018-04-17T23:46:12.920Z,12.40
2018-04-17T23:48:40.398Z,12.90
2018-04-17T23:51:07.842Z,11.90
2018-04-17T23:53:36.065Z,11.97
2018-04-17T23:56:03.526Z,12.07
2018-04-17T23:58:30.992Z,12.87
